Time;durP1;ratioP1;P1;durP2;ratioP2;P2;SDS_P1;SDS_P2;PMS_P1;PMS_P2;Temp;Humidity;BMP_temperature;BMP_pressure;BME280_temperature;BME280_humidity;BME280_pressure;Samples;Min_cycle;Max_cycle;Signal;HPM_P1;HPM_P2
2022/01/30 00:00:11;;;;;;;1999.90;999.90;;;;;;;;;;4995232;28;20225;-68
2022/01/30 00:02:56;;;;;;;1999.90;999.90;;;;;;;;;;4995161;28;20242;-70
2022/01/30 00:05:41;;;;;;;1999.90;999.90;;;;;;;;;;4995148;28;20285;-69
2022/01/30 00:08:28;;;;;;;1999.90;999.90;;;;;;;;;;4994773;28;20595;-70
2022/01/30 00:11:18;;;;;;;1999.90;999.90;;;;;;;;;;4995016;28;20337;-67
2022/01/30 00:14:05;;;;;;;1999.90;999.90;;;;;;;;;;4995254;28;20440;-70
2022/01/30 00:16:56;;;;;;;1999.90;999.90;;;;;;;;;;4995152;28;20681;-70
2022/01/30 00:19:45;;;;;;;1999.90;999.90;;;;;;;;;;4994844;28;20223;-69
2022/01/30 00:22:43;;;;;;;1999.90;999.90;;;;;;;;;;4995007;28;20329;-69
2022/01/30 00:25:43;;;;;;;1999.90;999.90;;;;;;;;;;4994906;28;20275;-70
2022/01/30 00:28:28;;;;;;;1999.90;999.90;;;;;;;;;;4994664;28;20200;-70
2022/01/30 00:31:17;;;;;;;1999.90;999.90;;;;;;;;;;4995153;28;20223;-70
2022/01/30 00:34:02;;;;;;;1999.90;999.90;;;;;;;;;;4994677;28;20252;-69
2022/01/30 00:36:46;;;;;;;1999.90;999.90;;;;;;;;;;4994721;28;20596;-70
2022/01/30 00:39:32;;;;;;;1999.90;999.90;;;;;;;;;;4993533;28;20754;-68
2022/01/30 00:42:19;;;;;;;1999.90;999.90;;;;;;;;;;4994543;28;20255;-70
2022/01/30 00:45:04;;;;;;;1999.90;999.90;;;;;;;;;;4994521;28;20206;-69
2022/01/30 00:47:49;;;;;;;1999.90;999.90;;;;;;;;;;4993862;28;20244;-68
2022/01/30 00:50:34;;;;;;;1999.90;999.90;;;;;;;;;;4993972;28;20344;-68
2022/01/30 00:53:20;;;;;;;1999.90;999.90;;;;;;;;;;4994315;28;20204;-71
2022/01/30 00:56:07;;;;;;;1999.90;999.90;;;;;;;;;;4994247;28;20686;-69
2022/01/30 00:58:53;;;;;;;1999.90;999.90;;;;;;;;;;4993830;28;20822;-70
2022/01/30 01:01:38;;;;;;;1999.90;999.90;;;;;;;;;;4993930;28;20617;-70
2022/01/30 01:04:23;;;;;;;1999.90;999.90;;;;;;;;;;4993962;28;20232;-70
2022/01/30 01:07:14;;;;;;;1999.90;999.90;;;;;;;;;;4994335;28;20509;-69
2022/01/30 01:10:06;;;;;;;1999.90;999.90;;;;;;;;;;4993770;28;20238;-69
2022/01/30 01:13:08;;;;;;;1999.90;999.90;;;;;;;;;;4993689;28;20298;-70
2022/01/30 01:25:18;;;;;;;1999.90;999.90;;;;;;;;;;4993402;28;20580;-70
2022/01/30 01:28:03;;;;;;;1999.90;999.90;;;;;;;;;;4993312;28;20219;-70
2022/01/30 01:30:48;;;;;;;1999.90;999.90;;;;;;;;;;4993573;28;20205;-70
2022/01/30 01:33:44;;;;;;;1999.90;999.90;;;;;;;;;;4993457;28;20703;-69
2022/01/30 01:36:29;;;;;;;1999.90;999.90;;;;;;;;;;4993555;28;20706;-70
2022/01/30 01:39:14;;;;;;;1999.90;999.90;;;;;;;;;;4993237;28;20225;-70
2022/01/30 01:41:59;;;;;;;1999.90;999.90;;;;;;;;;;4993401;28;20335;-70
2022/01/30 01:44:48;;;;;;;1999.90;999.90;;;;;;;;;;4993136;28;20228;-70
2022/01/30 01:47:33;;;;;;;1999.90;999.90;;;;;;;;;;4993248;28;20691;-70
2022/01/30 01:50:38;;;;;;;1999.90;999.90;;;;;;;;;;4993249;28;20605;-70
2022/01/30 01:53:25;;;;;;;1999.90;999.90;;;;;;;;;;4992567;28;20207;-70
2022/01/30 01:56:10;;;;;;;1999.90;999.90;;;;;;;;;;4992980;28;20207;-69
2022/01/30 01:58:55;;;;;;;1999.90;999.90;;;;;;;;;;4992733;28;20231;-69
2022/01/30 02:01:40;;;;;;;1999.90;999.90;;;;;;;;;;4993118;28;20223;-70
2022/01/30 02:04:25;;;;;;;1999.90;999.90;;;;;;;;;;4992695;28;20303;-69
2022/01/30 02:10:19;;;;;;;1999.90;999.90;;;;;;;;;;4992540;28;20268;-70
2022/01/30 02:13:20;;;;;;;1999.90;999.90;;;;;;;;;;4993044;28;20206;-70
2022/01/30 02:25:37;;;;;;;1999.90;999.90;;;;;;;;;;4992493;28;20596;-69
2022/01/30 02:28:22;;;;;;;1999.90;999.90;;;;;;;;;;4992563;28;20203;-70
2022/01/30 02:31:10;;;;;;;1999.90;999.90;;;;;;;;;;4992649;28;20292;-70
2022/01/30 02:33:55;;;;;;;1999.90;999.90;;;;;;;;;;4992808;28;20201;-70
2022/01/30 02:36:47;;;;;;;1999.90;999.90;;;;;;;;;;4992635;28;20221;-70
2022/01/30 02:39:33;;;;;;;1999.90;999.90;;;;;;;;;;4992257;28;20231;-70
2022/01/30 02:42:23;;;;;;;1999.90;999.90;;;;;;;;;;4992765;28;20213;-70
2022/01/30 02:45:11;;;;;;;1999.90;999.90;;;;;;;;;;4992278;28;20375;-70
2022/01/30 02:48:11;;;;;;;1999.90;999.90;;;;;;;;;;4990897;28;20465;-69
2022/01/30 02:50:56;;;;;;;1999.90;999.90;;;;;;;;;;4992660;28;20225;-70
2022/01/30 02:53:46;;;;;;;1999.90;999.90;;;;;;;;;;4992639;28;20211;-69
2022/01/30 02:56:34;;;;;;;1999.90;999.90;;;;;;;;;;4992506;28;20263;-70
2022/01/30 02:59:19;;;;;;;1999.90;999.90;;;;;;;;;;4992230;28;20223;-69
2022/01/30 03:02:05;;;;;;;1999.90;999.90;;;;;;;;;;4992313;28;20316;-70
2022/01/30 03:04:50;;;;;;;1999.90;999.90;;;;;;;;;;4995683;28;20727;-69
2022/01/30 03:07:34;;;;;;;1999.90;999.90;;;;;;;;;;4995916;28;20584;-69
2022/01/30 03:10:20;;;;;;;1999.90;999.90;;;;;;;;;;4995146;28;20523;-70
2022/01/30 03:13:06;;;;;;;1999.90;999.90;;;;;;;;;;4995009;28;20214;-70
2022/01/30 03:15:52;;;;;;;1999.90;999.90;;;;;;;;;;4994816;28;20734;-70
2022/01/30 03:18:37;;;;;;;1999.90;999.90;;;;;;;;;;4994460;28;20332;-70
2022/01/30 03:21:22;;;;;;;1999.90;999.90;;;;;;;;;;4994760;28;20339;-70
2022/01/30 03:24:07;;;;;;;1999.90;999.90;;;;;;;;;;4994598;28;20236;-70
2022/01/30 03:26:52;;;;;;;1999.90;999.90;;;;;;;;;;4994840;28;20206;-70
2022/01/30 03:29:38;;;;;;;1999.90;999.90;;;;;;;;;;4994270;28;20235;-70
2022/01/30 03:32:23;;;;;;;1999.90;999.90;;;;;;;;;;4994574;28;20217;-70
2022/01/30 03:35:08;;;;;;;1999.90;999.90;;;;;;;;;;4994588;28;20324;-70
2022/01/30 03:37:54;;;;;;;1999.90;999.90;;;;;;;;;;4994456;28;20204;-70
2022/01/30 03:40:38;;;;;;;1999.90;999.90;;;;;;;;;;4994509;28;20208;-70
2022/01/30 03:43:24;;;;;;;1999.90;999.90;;;;;;;;;;4994497;28;20570;-70
2022/01/30 03:46:11;;;;;;;1999.90;999.90;;;;;;;;;;4994562;28;20231;-70
2022/01/30 03:48:56;;;;;;;1999.90;999.90;;;;;;;;;;4994141;28;20334;-70
2022/01/30 03:51:40;;;;;;;1999.90;999.90;;;;;;;;;;4993163;28;20408;-70
2022/01/30 03:54:25;;;;;;;1999.90;999.90;;;;;;;;;;4994287;28;20208;-70
2022/01/30 03:57:10;;;;;;;1999.90;999.90;;;;;;;;;;4994120;28;20212;-70
2022/01/30 03:59:55;;;;;;;1999.90;999.90;;;;;;;;;;4993557;28;20282;-70
2022/01/30 04:02:41;;;;;;;1999.90;999.90;;;;;;;;;;4994081;28;20227;-70
2022/01/30 04:05:26;;;;;;;1999.90;999.90;;;;;;;;;;4994033;28;20227;-69
2022/01/30 04:08:11;;;;;;;1999.90;999.90;;;;;;;;;;4993605;28;20211;-70
2022/01/30 04:21:24;;;;;;;1999.90;999.90;;;;;;;;;;5109499;27;20577;-71
2022/01/30 04:24:09;;;;;;;1999.90;999.90;;;;;;;;;;5109458;28;20233;-71
2022/01/30 04:26:54;;;;;;;1999.90;999.90;;;;;;;;;;5109453;28;20205;-71
2022/01/30 04:29:39;;;;;;;1999.90;999.90;;;;;;;;;;5108999;28;20216;-71
2022/01/30 04:32:26;;;;;;;1999.90;999.90;;;;;;;;;;5109554;28;20733;-70
2022/01/30 04:35:16;;;;;;;1999.90;999.90;;;;;;;;;;5109227;28;20272;-71
2022/01/30 04:38:13;;;;;;;1999.90;999.90;;;;;;;;;;5109120;28;20192;-70
2022/01/30 04:53:14;;;;;;;1999.90;999.90;;;;;;;;;;5109173;28;20191;-71
2022/01/30 04:59:13;;;;;;;1999.90;999.90;;;;;;;;;;5108586;28;20308;-70
2022/01/30 05:02:04;;;;;;;1999.90;999.90;;;;;;;;;;5109016;28;20222;-71
2022/01/30 05:05:04;;;;;;;1999.90;999.90;;;;;;;;;;5107272;28;20204;-69
2022/01/30 05:07:49;;;;;;;1999.90;999.90;;;;;;;;;;5093734;28;20349;-69
2022/01/30 05:10:34;;;;;;;1999.90;999.90;;;;;;;;;;5108083;28;20223;-71
2022/01/30 05:13:23;;;;;;;1999.90;999.90;;;;;;;;;;5108965;28;20207;-70
2022/01/30 05:16:08;;;;;;;1999.90;999.90;;;;;;;;;;5105838;28;20207;-67
2022/01/30 05:18:53;;;;;;;1999.90;999.90;;;;;;;;;;5106025;28;20244;-69
2022/01/30 05:21:39;;;;;;;1999.90;999.90;;;;;;;;;;5099049;28;20702;-71
2022/01/30 05:24:24;;;;;;;1999.90;999.90;;;;;;;;;;5095020;28;20208;-71
2022/01/30 05:27:10;;;;;;;1999.90;999.90;;;;;;;;;;5094975;28;20205;-71
2022/01/30 05:29:57;;;;;;;1999.90;999.90;;;;;;;;;;5093214;28;20228;-71
2022/01/30 05:32:42;;;;;;;1999.90;999.90;;;;;;;;;;5092658;28;20205;-71
2022/01/30 05:35:28;;;;;;;1999.90;999.90;;;;;;;;;;5073944;28;20259;-71
2022/01/30 05:38:13;;;;;;;1999.90;999.90;;;;;;;;;;5092516;28;20273;-69
2022/01/30 05:40:58;;;;;;;1999.90;999.90;;;;;;;;;;5092692;28;20282;-71
2022/01/30 05:43:46;;;;;;;1999.90;999.90;;;;;;;;;;5072735;28;20291;-69
2022/01/30 05:46:36;;;;;;;1999.90;999.90;;;;;;;;;;5071966;28;20412;-70
2022/01/30 05:49:22;;;;;;;1999.90;999.90;;;;;;;;;;5072441;28;20217;-69
2022/01/30 05:52:07;;;;;;;1999.90;999.90;;;;;;;;;;5073434;28;20208;-70
2022/01/30 05:54:52;;;;;;;1999.90;999.90;;;;;;;;;;5087736;28;20208;-71
2022/01/30 05:57:37;;;;;;;1999.90;999.90;;;;;;;;;;5095353;28;20246;-71
2022/01/30 06:00:22;;;;;;;1999.90;999.90;;;;;;;;;;5080946;28;20220;-70
2022/01/30 06:03:08;;;;;;;1999.90;999.90;;;;;;;;;;5078393;28;20302;-71
2022/01/30 06:05:53;;;;;;;1999.90;999.90;;;;;;;;;;5073362;28;20209;-71
2022/01/30 06:08:45;;;;;;;1999.90;999.90;;;;;;;;;;5073057;28;20294;-71
2022/01/30 06:11:30;;;;;;;1999.90;999.90;;;;;;;;;;5088526;28;20690;-71
2022/01/30 06:14:15;;;;;;;1999.90;999.90;;;;;;;;;;5091986;28;20583;-71
2022/01/30 06:17:01;;;;;;;1999.90;999.90;;;;;;;;;;5091691;28;20230;-71
2022/01/30 06:19:47;;;;;;;1999.90;999.90;;;;;;;;;;5080220;28;20236;-71
2022/01/30 06:22:32;;;;;;;1999.90;999.90;;;;;;;;;;5082394;28;20261;-71
2022/01/30 06:25:17;;;;;;;1999.90;999.90;;;;;;;;;;5084464;28;20219;-70
2022/01/30 06:28:02;;;;;;;1999.90;999.90;;;;;;;;;;5084546;28;20207;-72
2022/01/30 06:30:47;;;;;;;1999.90;999.90;;;;;;;;;;5083752;28;20228;-71
2022/01/30 06:33:32;;;;;;;1999.90;999.90;;;;;;;;;;5075895;28;20707;-71
2022/01/30 06:36:18;;;;;;;1999.90;999.90;;;;;;;;;;5075435;28;20255;-70
2022/01/30 06:39:04;;;;;;;1999.90;999.90;;;;;;;;;;5088484;28;20224;-71
2022/01/30 06:41:49;;;;;;;1999.90;999.90;;;;;;;;;;5091651;28;20292;-70
2022/01/30 06:44:34;;;;;;;1999.90;999.90;;;;;;;;;;5081781;28;20254;-69
2022/01/30 06:47:19;;;;;;;1999.90;999.90;;;;;;;;;;5072141;28;20205;-71
2022/01/30 06:50:04;;;;;;;1999.90;999.90;;;;;;;;;;5082742;28;20274;-67
2022/01/30 06:52:50;;;;;;;1999.90;999.90;;;;;;;;;;5091374;28;20721;-70
2022/01/30 06:55:38;;;;;;;1999.90;999.90;;;;;;;;;;5090320;28;20689;-71
2022/01/30 06:58:23;;;;;;;1999.90;999.90;;;;;;;;;;5092840;28;20215;-71
2022/01/30 07:01:08;;;;;;;1999.90;999.90;;;;;;;;;;5092943;28;20204;-72
2022/01/30 07:03:53;;;;;;;1999.90;999.90;;;;;;;;;;5092272;28;20598;-70
2022/01/30 07:06:38;;;;;;;1999.90;999.90;;;;;;;;;;5091565;28;20206;-70
2022/01/30 07:09:24;;;;;;;1999.90;999.90;;;;;;;;;;5091495;28;20236;-71
2022/01/30 07:12:09;;;;;;;1999.90;999.90;;;;;;;;;;5089639;28;20200;-70
2022/01/30 07:14:55;;;;;;;1999.90;999.90;;;;;;;;;;5087778;28;20207;-71
2022/01/30 07:17:39;;;;;;;1999.90;999.90;;;;;;;;;;5084723;28;20513;-70
2022/01/30 07:20:24;;;;;;;1999.90;999.90;;;;;;;;;;5081864;28;20363;-70
2022/01/30 07:23:09;;;;;;;1999.90;999.90;;;;;;;;;;5088573;28;20384;-70
2022/01/30 07:25:56;;;;;;;1999.90;999.90;;;;;;;;;;5090850;28;20200;-71
2022/01/30 07:28:40;;;;;;;1999.90;999.90;;;;;;;;;;5078872;28;20351;-71
2022/01/30 07:31:25;;;;;;;1999.90;999.90;;;;;;;;;;5075366;28;20220;-70
2022/01/30 07:34:11;;;;;;;1999.90;999.90;;;;;;;;;;5073534;28;20196;-71
2022/01/30 07:36:57;;;;;;;1999.90;999.90;;;;;;;;;;5088268;28;20211;-71
2022/01/30 07:39:43;;;;;;;1999.90;999.90;;;;;;;;;;5072325;28;20252;-70
2022/01/30 07:42:29;;;;;;;1999.90;999.90;;;;;;;;;;5087890;28;20204;-71
2022/01/30 07:45:14;;;;;;;1999.90;999.90;;;;;;;;;;5071013;28;20653;-71
2022/01/30 07:47:59;;;;;;;1999.90;999.90;;;;;;;;;;5077808;28;20205;-70
2022/01/30 07:50:44;;;;;;;1999.90;999.90;;;;;;;;;;5071408;28;20295;-69
2022/01/30 07:53:29;;;;;;;1999.90;999.90;;;;;;;;;;5083418;28;20286;-66
2022/01/30 07:56:14;;;;;;;1999.90;999.90;;;;;;;;;;5071969;28;20295;-71
2022/01/30 07:59:01;;;;;;;1999.90;999.90;;;;;;;;;;5071653;28;20717;-69
2022/01/30 08:01:46;;;;;;;1999.90;999.90;;;;;;;;;;5074183;28;20690;-66
2022/01/30 08:04:31;;;;;;;1999.90;999.90;;;;;;;;;;5090291;28;20203;-71
2022/01/30 08:07:16;;;;;;;1999.90;999.90;;;;;;;;;;5086514;28;20207;-70
2022/01/30 08:10:01;;;;;;;1999.90;999.90;;;;;;;;;;5089350;28;20235;-70
2022/01/30 08:12:47;;;;;;;1999.90;999.90;;;;;;;;;;5092209;28;20188;-68
2022/01/30 08:15:33;;;;;;;1999.90;999.90;;;;;;;;;;5072211;28;20208;-68
2022/01/30 08:18:18;;;;;;;1999.90;999.90;;;;;;;;;;5084575;28;20215;-67
2022/01/30 08:21:03;;;;;;;1999.90;999.90;;;;;;;;;;5092308;28;20224;-71
2022/01/30 08:23:48;;;;;;;1999.90;999.90;;;;;;;;;;5092338;28;20277;-71
2022/01/30 08:26:33;;;;;;;1999.90;999.90;;;;;;;;;;5090364;28;20211;-69
2022/01/30 08:29:17;;;;;;;1999.90;999.90;;;;;;;;;;5083553;28;20323;-69
2022/01/30 08:32:04;;;;;;;1999.90;999.90;;;;;;;;;;5091520;28;20225;-71
2022/01/30 08:34:52;;;;;;;1999.90;999.90;;;;;;;;;;5083020;28;20297;-71
2022/01/30 08:37:36;;;;;;;1999.90;999.90;;;;;;;;;;5080133;28;20208;-68
2022/01/30 08:40:22;;;;;;;1999.90;999.90;;;;;;;;;;5077174;28;20346;-70
2022/01/30 08:43:07;;;;;;;1999.90;999.90;;;;;;;;;;5085594;28;20419;-70
2022/01/30 08:45:53;;;;;;;1999.90;999.90;;;;;;;;;;5088597;28;20213;-70
2022/01/30 08:48:39;;;;;;;1999.90;999.90;;;;;;;;;;5084975;28;20241;-70
2022/01/30 08:51:24;;;;;;;1999.90;999.90;;;;;;;;;;5087214;28;20654;-70
2022/01/30 08:54:09;;;;;;;1999.90;999.90;;;;;;;;;;5084761;28;20241;-68
2022/01/30 08:56:54;;;;;;;1999.90;999.90;;;;;;;;;;5086699;28;20211;-68
2022/01/30 08:59:39;;;;;;;1999.90;999.90;;;;;;;;;;5088956;28;20235;-68
2022/01/30 09:02:24;;;;;;;1999.90;999.90;;;;;;;;;;5089179;28;20617;-69
2022/01/30 09:05:11;;;;;;;1999.90;999.90;;;;;;;;;;5087289;28;20619;-70
2022/01/30 09:07:56;;;;;;;1999.90;999.90;;;;;;;;;;5089213;28;20215;-68
2022/01/30 09:10:42;;;;;;;1999.90;999.90;;;;;;;;;;5089284;28;20845;-70
2022/01/30 09:13:27;;;;;;;1999.90;999.90;;;;;;;;;;5087568;28;20220;-72
2022/01/30 09:16:12;;;;;;;1999.90;999.90;;;;;;;;;;5088186;28;20250;-69
2022/01/30 09:18:57;;;;;;;1999.90;999.90;;;;;;;;;;5090423;28;20280;-69
2022/01/30 09:21:44;;;;;;;1999.90;999.90;;;;;;;;;;5084766;28;20285;-68
2022/01/30 09:24:29;;;;;;;1999.90;999.90;;;;;;;;;;5088314;28;20219;-71
2022/01/30 09:27:14;;;;;;;1999.90;999.90;;;;;;;;;;5085692;28;20216;-70
2022/01/30 09:29:59;;;;;;;1999.90;999.90;;;;;;;;;;5090853;28;20234;-70
2022/01/30 09:32:44;;;;;;;1999.90;999.90;;;;;;;;;;5091458;28;20210;-71
2022/01/30 09:35:29;;;;;;;1999.90;999.90;;;;;;;;;;5084647;28;20208;-70
2022/01/30 09:38:15;;;;;;;1999.90;999.90;;;;;;;;;;5089204;28;20206;-68
2022/01/30 09:41:00;;;;;;;1999.90;999.90;;;;;;;;;;5086275;28;20274;-69
2022/01/30 09:43:46;;;;;;;1999.90;999.90;;;;;;;;;;5085250;28;20438;-69
2022/01/30 09:46:32;;;;;;;1999.90;999.90;;;;;;;;;;5087886;28;20213;-69
2022/01/30 09:49:17;;;;;;;1999.90;999.90;;;;;;;;;;5086201;28;20308;-72
2022/01/30 09:52:03;;;;;;;1999.90;999.90;;;;;;;;;;5089647;28;20337;-68
2022/01/30 09:54:49;;;;;;;1999.90;999.90;;;;;;;;;;5087742;28;20216;-69
2022/01/30 09:57:35;;;;;;;1999.90;999.90;;;;;;;;;;5090984;28;20341;-70
2022/01/30 10:00:20;;;;;;;1999.90;999.90;;;;;;;;;;5088840;28;20302;-69
2022/01/30 10:03:05;;;;;;;1999.90;999.90;;;;;;;;;;5086667;28;20268;-72
2022/01/30 10:06:00;;;;;;;1999.90;999.90;;;;;;;;;;5088284;28;20282;-70
2022/01/30 10:08:48;;;;;;;1999.90;999.90;;;;;;;;;;5084840;28;20230;-69
2022/01/30 10:11:47;;;;;;;1999.90;999.90;;;;;;;;;;5088658;28;20221;-69
2022/01/30 10:14:32;;;;;;;1999.90;999.90;;;;;;;;;;5085306;28;20208;-71
2022/01/30 10:17:25;;;;;;;1999.90;999.90;;;;;;;;;;5086429;28;20607;-70
2022/01/30 10:20:11;;;;;;;1999.90;999.90;;;;;;;;;;5083642;28;20253;-68
2022/01/30 10:22:56;;;;;;;1999.90;999.90;;;;;;;;;;5080361;28;20214;-71
2022/01/30 10:25:50;;;;;;;1999.90;999.90;;;;;;;;;;5086190;28;20223;-68
2022/01/30 10:28:37;;;;;;;1999.90;999.90;;;;;;;;;;5091114;28;20231;-70
2022/01/30 10:31:24;;;;;;;1999.90;999.90;;;;;;;;;;5086302;28;20733;-72
2022/01/30 10:34:19;;;;;;;1999.90;999.90;;;;;;;;;;5091423;28;20210;-70
2022/01/30 10:37:15;;;;;;;1999.90;999.90;;;;;;;;;;5091279;28;20209;-70
2022/01/30 10:40:04;;;;;;;1999.90;999.90;;;;;;;;;;5090603;28;20223;-70
2022/01/30 10:42:50;;;;;;;1999.90;999.90;;;;;;;;;;5092447;28;20309;-72
2022/01/30 10:45:36;;;;;;;1999.90;999.90;;;;;;;;;;5093344;28;20210;-70
2022/01/30 10:48:21;;;;;;;1999.90;999.90;;;;;;;;;;5081639;28;20623;-70
2022/01/30 10:51:11;;;;;;;1999.90;999.90;;;;;;;;;;5076753;28;20622;-71
2022/01/30 10:53:56;;;;;;;1999.90;999.90;;;;;;;;;;5084010;28;20218;-70
2022/01/30 10:56:41;;;;;;;1999.90;999.90;;;;;;;;;;5084048;28;20266;-69
2022/01/30 10:59:26;;;;;;;1999.90;999.90;;;;;;;;;;5086341;28;20246;-70
2022/01/30 11:02:13;;;;;;;1999.90;999.90;;;;;;;;;;5089136;28;20222;-70
2022/01/30 11:05:02;;;;;;;1999.90;999.90;;;;;;;;;;5086816;28;20285;-69
2022/01/30 11:07:50;;;;;;;1999.90;999.90;;;;;;;;;;5088508;28;20699;-68
2022/01/30 11:10:37;;;;;;;1999.90;999.90;;;;;;;;;;5092651;28;20245;-69
2022/01/30 11:13:32;;;;;;;1999.90;999.90;;;;;;;;;;5080940;28;20728;-68
2022/01/30 11:19:18;;;;;;;1999.90;999.90;;;;;;;;;;5057403;28;20226;-68
2022/01/30 11:22:05;;;;;;;1999.90;999.90;;;;;;;;;;5090652;28;20220;-69
2022/01/30 11:24:51;;;;;;;1999.90;999.90;;;;;;;;;;5087155;28;20223;-71
2022/01/30 11:27:37;;;;;;;1999.90;999.90;;;;;;;;;;5081154;28;20209;-71
2022/01/30 11:30:24;;;;;;;1999.90;999.90;;;;;;;;;;5081181;28;20219;-70
2022/01/30 11:33:09;;;;;;;1999.90;999.90;;;;;;;;;;5086254;28;20560;-71
2022/01/30 11:35:55;;;;;;;1999.90;999.90;;;;;;;;;;5080792;28;20303;-69
2022/01/30 11:38:40;;;;;;;1999.90;999.90;;;;;;;;;;5084459;28;20429;-70
2022/01/30 11:41:25;;;;;;;1999.90;999.90;;;;;;;;;;5081622;28;20206;-70
2022/01/30 11:44:23;;;;;;;1999.90;999.90;;;;;;;;;;5081548;28;20261;-72
2022/01/30 11:47:24;;;;;;;1999.90;999.90;;;;;;;;;;5082915;28;20219;-70
2022/01/30 11:50:09;;;;;;;1999.90;999.90;;;;;;;;;;5083308;28;20222;-72
2022/01/30 11:52:57;;;;;;;1999.90;999.90;;;;;;;;;;5089559;28;20250;-71
2022/01/30 11:55:43;;;;;;;1999.90;999.90;;;;;;;;;;5082063;28;20389;-70
2022/01/30 11:58:38;;;;;;;1999.90;999.90;;;;;;;;;;5090473;28;20203;-70
2022/01/30 12:01:36;;;;;;;1999.90;999.90;;;;;;;;;;5091976;28;20210;-69
2022/01/30 12:04:25;;;;;;;1999.90;999.90;;;;;;;;;;5076117;28;20202;-70
2022/01/30 12:07:31;;;;;;;1999.90;999.90;;;;;;;;;;5091864;28;20571;-71
2022/01/30 12:10:33;;;;;;;1999.90;999.90;;;;;;;;;;5075280;28;20219;-71
2022/01/30 12:13:38;;;;;;;1999.90;999.90;;;;;;;;;;5091977;28;20289;-70
2022/01/30 12:16:42;;;;;;;1999.90;999.90;;;;;;;;;;5086400;28;20199;-71
2022/01/30 12:19:42;;;;;;;1999.90;999.90;;;;;;;;;;5091287;28;20225;-70
2022/01/30 12:22:41;;;;;;;1999.90;999.90;;;;;;;;;;5087227;28;20293;-71
2022/01/30 12:25:31;;;;;;;1999.90;999.90;;;;;;;;;;5083722;28;20781;-67
2022/01/30 12:28:17;;;;;;;1999.90;999.90;;;;;;;;;;5074902;28;20204;-71
2022/01/30 12:31:02;;;;;;;1999.90;999.90;;;;;;;;;;5080938;28;20780;-71
2022/01/30 12:33:46;;;;;;;1999.90;999.90;;;;;;;;;;5091873;28;20227;-71
2022/01/30 12:36:32;;;;;;;1999.90;999.90;;;;;;;;;;5080745;28;20916;-70
2022/01/30 12:39:21;;;;;;;1999.90;999.90;;;;;;;;;;5094927;28;20228;-70
2022/01/30 12:42:14;;;;;;;1999.90;999.90;;;;;;;;;;5095443;28;20219;-70
2022/01/30 12:45:02;;;;;;;1999.90;999.90;;;;;;;;;;5095556;28;20246;-70
2022/01/30 12:47:47;;;;;;;1999.90;999.90;;;;;;;;;;5089354;28;20328;-71
2022/01/30 12:50:34;;;;;;;1999.90;999.90;;;;;;;;;;5093186;28;20627;-69
2022/01/30 12:53:19;;;;;;;1999.90;999.90;;;;;;;;;;5092810;28;20289;-68
2022/01/30 12:56:05;;;;;;;1999.90;999.90;;;;;;;;;;5092462;28;20575;-70
2022/01/30 12:58:50;;;;;;;1999.90;999.90;;;;;;;;;;5093040;28;20298;-68
2022/01/30 13:01:38;;;;;;;1999.90;999.90;;;;;;;;;;5093078;28;20204;-72
2022/01/30 13:04:25;;;;;;;1999.90;999.90;;;;;;;;;;5090272;28;20695;-70
2022/01/30 13:07:12;;;;;;;1999.90;999.90;;;;;;;;;;5088497;28;20215;-69
2022/01/30 13:10:04;;;;;;;1999.90;999.90;;;;;;;;;;5087229;28;20465;-68
2022/01/30 13:12:49;;;;;;;1999.90;999.90;;;;;;;;;;5092329;28;20223;-69
2022/01/30 13:15:38;;;;;;;1999.90;999.90;;;;;;;;;;5092562;28;20242;-69
2022/01/30 13:18:25;;;;;;;1999.90;999.90;;;;;;;;;;5078117;28;20207;-70
2022/01/30 13:21:09;;;;;;;1999.90;999.90;;;;;;;;;;5093131;28;20206;-70
2022/01/30 13:23:54;;;;;;;1999.90;999.90;;;;;;;;;;5090307;28;20296;-70
2022/01/30 13:26:41;;;;;;;1999.90;999.90;;;;;;;;;;5089981;28;20205;-69
2022/01/30 13:29:27;;;;;;;1999.90;999.90;;;;;;;;;;5090193;28;20230;-69
2022/01/30 13:32:13;;;;;;;1999.90;999.90;;;;;;;;;;5092300;28;20224;-69
2022/01/30 13:35:00;;;;;;;1999.90;999.90;;;;;;;;;;5092286;28;20235;-69
2022/01/30 13:37:46;;;;;;;1999.90;999.90;;;;;;;;;;5087234;28;20253;-71
2022/01/30 13:40:38;;;;;;;1999.90;999.90;;;;;;;;;;5089851;28;20770;-71
2022/01/30 13:43:33;;;;;;;1999.90;999.90;;;;;;;;;;5086334;28;20198;-70
2022/01/30 13:49:21;;;;;;;1999.90;999.90;;;;;;;;;;5084314;28;20284;-67
2022/01/30 13:52:08;;;;;;;1999.90;999.90;;;;;;;;;;5084028;28;20210;-69
2022/01/30 13:55:00;;;;;;;1999.90;999.90;;;;;;;;;;5086949;28;20207;-70
2022/01/30 13:57:45;;;;;;;1999.90;999.90;;;;;;;;;;5084611;28;20211;-67
2022/01/30 14:00:31;;;;;;;1999.90;999.90;;;;;;;;;;5090105;28;20230;-69
2022/01/30 14:03:22;;;;;;;1999.90;999.90;;;;;;;;;;5085060;28;20241;-71
2022/01/30 14:06:16;;;;;;;1999.90;999.90;;;;;;;;;;5090497;28;20409;-69
2022/01/30 14:09:03;;;;;;;1999.90;999.90;;;;;;;;;;5084542;28;20296;-70
2022/01/30 14:11:53;;;;;;;1999.90;999.90;;;;;;;;;;5086697;28;20595;-69
2022/01/30 14:14:39;;;;;;;1999.90;999.90;;;;;;;;;;5092369;28;20214;-69
2022/01/30 14:17:24;;;;;;;1999.90;999.90;;;;;;;;;;5089066;28;20202;-69
2022/01/30 14:20:12;;;;;;;1999.90;999.90;;;;;;;;;;5087233;28;20802;-71
2022/01/30 14:23:05;;;;;;;1999.90;999.90;;;;;;;;;;5085846;28;20287;-70
2022/01/30 14:25:53;;;;;;;1999.90;999.90;;;;;;;;;;5088977;28;20203;-69
2022/01/30 14:28:38;;;;;;;1999.90;999.90;;;;;;;;;;5089326;28;20276;-71
2022/01/30 14:31:23;;;;;;;1999.90;999.90;;;;;;;;;;5091496;28;20210;-69
2022/01/30 14:34:08;;;;;;;1999.90;999.90;;;;;;;;;;5090640;28;20418;-68
2022/01/30 14:36:57;;;;;;;1999.90;999.90;;;;;;;;;;5091268;28;20206;-70
2022/01/30 14:39:42;;;;;;;1999.90;999.90;;;;;;;;;;5091075;28;20820;-70
2022/01/30 14:42:28;;;;;;;1999.90;999.90;;;;;;;;;;5091004;28;20214;-69
2022/01/30 14:45:13;;;;;;;1999.90;999.90;;;;;;;;;;5091333;28;20214;-70
2022/01/30 14:47:58;;;;;;;1999.90;999.90;;;;;;;;;;5090763;28;20576;-68
2022/01/30 14:50:43;;;;;;;1999.90;999.90;;;;;;;;;;5087037;28;20697;-70
2022/01/30 14:53:28;;;;;;;1999.90;999.90;;;;;;;;;;5085962;28;20235;-67
2022/01/30 14:56:13;;;;;;;1999.90;999.90;;;;;;;;;;5088159;28;20914;-71
2022/01/30 14:59:00;;;;;;;1999.90;999.90;;;;;;;;;;5086503;28;21549;-69
2022/01/30 15:01:45;;;;;;;1999.90;999.90;;;;;;;;;;5088254;28;20236;-70
2022/01/30 15:04:30;;;;;;;1999.90;999.90;;;;;;;;;;5089768;28;20316;-68
2022/01/30 15:07:15;;;;;;;1999.90;999.90;;;;;;;;;;5087998;28;20218;-70
2022/01/30 15:10:00;;;;;;;1999.90;999.90;;;;;;;;;;5088061;28;20234;-68
2022/01/30 15:12:44;;;;;;;1999.90;999.90;;;;;;;;;;5079645;28;20223;-70
2022/01/30 15:15:35;;;;;;;1999.90;999.90;;;;;;;;;;5089983;28;20213;-68
2022/01/30 15:18:23;;;;;;;1999.90;999.90;;;;;;;;;;5090112;28;20214;-70
2022/01/30 15:21:08;;;;;;;1999.90;999.90;;;;;;;;;;5083256;28;20341;-69
2022/01/30 15:23:53;;;;;;;1999.90;999.90;;;;;;;;;;5083491;28;20697;-71
2022/01/30 15:26:38;;;;;;;1999.90;999.90;;;;;;;;;;5082804;28;20292;-70
2022/01/30 15:29:24;;;;;;;1999.90;999.90;;;;;;;;;;5081749;28;20234;-70
2022/01/30 15:32:10;;;;;;;1999.90;999.90;;;;;;;;;;5083450;28;20460;-69
2022/01/30 15:34:57;;;;;;;1999.90;999.90;;;;;;;;;;5087961;28;20595;-69
2022/01/30 15:37:42;;;;;;;1999.90;999.90;;;;;;;;;;5088634;28;20204;-69
2022/01/30 15:40:27;;;;;;;1999.90;999.90;;;;;;;;;;5092118;28;20386;-69
2022/01/30 15:43:13;;;;;;;1999.90;999.90;;;;;;;;;;5092318;28;20260;-70
2022/01/30 15:49:04;;;;;;;1999.90;999.90;;;;;;;;;;5091576;28;20283;-69
2022/01/30 15:51:49;;;;;;;1999.90;999.90;;;;;;;;;;5091999;28;20205;-69
2022/01/30 15:54:33;;;;;;;1999.90;999.90;;;;;;;;;;5091771;28;20206;-69
2022/01/30 15:57:19;;;;;;;1999.90;999.90;;;;;;;;;;5091795;28;20214;-70
2022/01/30 16:00:05;;;;;;;1999.90;999.90;;;;;;;;;;5091128;28;20421;-69
2022/01/30 16:02:50;;;;;;;1999.90;999.90;;;;;;;;;;5091634;28;20940;-70
2022/01/30 16:05:36;;;;;;;1999.90;999.90;;;;;;;;;;5090253;28;20309;-69
2022/01/30 16:08:21;;;;;;;1999.90;999.90;;;;;;;;;;5080943;28;20213;-69
2022/01/30 16:11:21;;;;;;;1999.90;999.90;;;;;;;;;;5091655;28;20318;-70
2022/01/30 16:17:09;;;;;;;1999.90;999.90;;;;;;;;;;5091962;28;20228;-69
2022/01/30 16:19:54;;;;;;;1999.90;999.90;;;;;;;;;;5091194;28;20372;-69
2022/01/30 16:22:40;;;;;;;1999.90;999.90;;;;;;;;;;5091859;28;20203;-72
2022/01/30 16:25:25;;;;;;;1999.90;999.90;;;;;;;;;;5091464;28;20282;-71
2022/01/30 16:28:10;;;;;;;1999.90;999.90;;;;;;;;;;5075468;28;20252;-71
2022/01/30 16:30:55;;;;;;;1999.90;999.90;;;;;;;;;;5091428;28;20209;-69